sensor_id;sensor_type;location;lat;lon;timestamp;P1;durP1;ratioP1;P2;durP2;ratioP2
4309;SDS011;2168;53.576;9.980;2023-02-01T00:01:28;23.50;;;3.90;;
4309;SDS011;2168;53.576;9.980;2023-02-01T00:03:54;19.30;;;3.77;;
4309;SDS011;2168;53.576;9.980;2023-02-01T00:06:19;24.20;;;3.37;;
4309;SDS011;2168;53.576;9.980;2023-02-01T00:08:44;25.00;;;4.37;;
4309;SDS011;2168;53.576;9.980;2023-02-01T00:11:10;25.60;;;3.87;;
4309;SDS011;2168;53.576;9.980;2023-02-01T00:13:36;31.53;;;4.70;;
4309;SDS011;2168;53.576;9.980;2023-02-01T00:16:06;20.83;;;4.13;;
4309;SDS011;2168;53.576;9.980;2023-02-01T00:18:32;14.07;;;3.87;;
4309;SDS011;2168;53.576;9.980;2023-02-01T00:20:57;17.97;;;3.73;;
4309;SDS011;2168;53.576;9.980;2023-02-01T00:23:23;24.53;;;3.77;;
4309;SDS011;2168;53.576;9.980;2023-02-01T00:25:48;23.30;;;3.33;;
4309;SDS011;2168;53.576;9.980;2023-02-01T00:28:13;26.60;;;5.23;;
4309;SDS011;2168;53.576;9.980;2023-02-01T00:30:38;19.60;;;3.57;;
4309;SDS011;2168;53.576;9.980;2023-02-01T00:33:03;18.50;;;3.40;;
4309;SDS011;2168;53.576;9.980;2023-02-01T00:35:29;16.80;;;4.03;;
4309;SDS011;2168;53.576;9.980;2023-02-01T00:37:54;17.83;;;3.07;;
4309;SDS011;2168;53.576;9.980;2023-02-01T00:40:19;12.83;;;3.30;;
4309;SDS011;2168;53.576;9.980;2023-02-01T00:42:44;25.00;;;4.00;;
4309;SDS011;2168;53.576;9.980;2023-02-01T00:45:09;22.80;;;4.30;;
4309;SDS011;2168;53.576;9.980;2023-02-01T00:47:35;18.93;;;3.73;;
4309;SDS011;2168;53.576;9.980;2023-02-01T00:50:00;28.40;;;3.47;;
4309;SDS011;2168;53.576;9.980;2023-02-01T00:52:25;32.90;;;5.07;;
4309;SDS011;2168;53.576;9.980;2023-02-01T00:54:50;20.83;;;4.07;;
4309;SDS011;2168;53.576;9.980;2023-02-01T00:57:16;18.60;;;3.80;;
4309;SDS011;2168;53.576;9.980;2023-02-01T00:59:41;27.57;;;5.33;;
4309;SDS011;2168;53.576;9.980;2023-02-01T01:02:06;26.97;;;5.30;;
4309;SDS011;2168;53.576;9.980;2023-02-01T01:04:31;24.87;;;4.70;;
4309;SDS011;2168;53.576;9.980;2023-02-01T01:06:56;22.57;;;4.57;;
4309;SDS011;2168;53.576;9.980;2023-02-01T01:09:21;30.57;;;5.77;;
4309;SDS011;2168;53.576;9.980;2023-02-01T01:11:47;23.80;;;4.13;;
4309;SDS011;2168;53.576;9.980;2023-02-01T01:14:12;24.10;;;5.10;;
4309;SDS011;2168;53.576;9.980;2023-02-01T01:16:37;36.27;;;4.00;;
4309;SDS011;2168;53.576;9.980;2023-02-01T01:19:03;30.47;;;5.23;;
4309;SDS011;2168;53.576;9.980;2023-02-01T01:21:28;23.63;;;4.20;;
4309;SDS011;2168;53.576;9.980;2023-02-01T01:23:54;20.73;;;3.97;;
4309;SDS011;2168;53.576;9.980;2023-02-01T01:26:23;25.90;;;4.70;;
4309;SDS011;2168;53.576;9.980;2023-02-01T01:28:48;24.40;;;4.50;;
4309;SDS011;2168;53.576;9.980;2023-02-01T01:31:15;19.40;;;4.10;;
4309;SDS011;2168;53.576;9.980;2023-02-01T01:33:40;27.80;;;4.97;;
4309;SDS011;2168;53.576;9.980;2023-02-01T01:36:06;18.93;;;4.27;;
4309;SDS011;2168;53.576;9.980;2023-02-01T01:38:31;29.60;;;4.37;;
4309;SDS011;2168;53.576;9.980;2023-02-01T01:40:56;20.33;;;4.00;;
4309;SDS011;2168;53.576;9.980;2023-02-01T01:43:22;26.10;;;4.40;;
4309;SDS011;2168;53.576;9.980;2023-02-01T01:45:47;23.77;;;4.73;;
4309;SDS011;2168;53.576;9.980;2023-02-01T01:48:15;33.43;;;4.30;;
4309;SDS011;2168;53.576;9.980;2023-02-01T01:50:43;26.23;;;5.53;;
4309;SDS011;2168;53.576;9.980;2023-02-01T01:53:10;27.60;;;4.00;;
4309;SDS011;2168;53.576;9.980;2023-02-01T01:55:37;25.80;;;5.60;;
4309;SDS011;2168;53.576;9.980;2023-02-01T01:58:08;29.93;;;5.67;;
4309;SDS011;2168;53.576;9.980;2023-02-01T02:00:35;28.37;;;5.20;;
4309;SDS011;2168;53.576;9.980;2023-02-01T02:03:07;26.70;;;5.37;;
4309;SDS011;2168;53.576;9.980;2023-02-01T02:05:33;24.90;;;4.13;;
4309;SDS011;2168;53.576;9.980;2023-02-01T02:07:59;19.87;;;4.47;;
4309;SDS011;2168;53.576;9.980;2023-02-01T02:10:26;23.97;;;4.93;;
4309;SDS011;2168;53.576;9.980;2023-02-01T02:13:11;28.67;;;4.40;;
4309;SDS011;2168;53.576;9.980;2023-02-01T02:15:38;30.53;;;4.57;;
4309;SDS011;2168;53.576;9.980;2023-02-01T02:18:18;27.90;;;5.53;;
4309;SDS011;2168;53.576;9.980;2023-02-01T02:23:38;22.87;;;4.40;;
4309;SDS011;2168;53.576;9.980;2023-02-01T02:31:26;30.80;;;4.80;;
4309;SDS011;2168;53.576;9.980;2023-02-01T02:36:30;29.90;;;4.20;;
4309;SDS011;2168;53.576;9.980;2023-02-01T02:41:33;19.80;;;4.17;;
4309;SDS011;2168;53.576;9.980;2023-02-01T02:44:35;22.80;;;5.50;;
4309;SDS011;2168;53.576;9.980;2023-02-01T02:47:45;20.93;;;4.70;;
4309;SDS011;2168;53.576;9.980;2023-02-01T02:53:56;28.03;;;4.93;;
4309;SDS011;2168;53.576;9.980;2023-02-01T02:56:06;27.60;;;4.67;;
4309;SDS011;2168;53.576;9.980;2023-02-01T02:58:50;35.90;;;5.40;;
4309;SDS011;2168;53.576;9.980;2023-02-01T03:01:34;26.00;;;4.70;;
4309;SDS011;2168;53.576;9.980;2023-02-01T03:04:19;21.53;;;5.13;;
4309;SDS011;2168;53.576;9.980;2023-02-01T03:06:46;27.07;;;5.20;;
4309;SDS011;2168;53.576;9.980;2023-02-01T03:12:12;30.33;;;6.23;;
4309;SDS011;2168;53.576;9.980;2023-02-01T03:15:03;22.70;;;5.80;;
4309;SDS011;2168;53.576;9.980;2023-02-01T03:17:33;30.07;;;5.67;;
4309;SDS011;2168;53.576;9.980;2023-02-01T03:20:01;29.50;;;6.77;;
4309;SDS011;2168;53.576;9.980;2023-02-01T03:22:27;37.03;;;6.30;;
4309;SDS011;2168;53.576;9.980;2023-02-01T03:24:58;21.97;;;5.73;;
4309;SDS011;2168;53.576;9.980;2023-02-01T03:27:27;28.77;;;5.27;;
4309;SDS011;2168;53.576;9.980;2023-02-01T03:29:56;20.60;;;4.53;;
4309;SDS011;2168;53.576;9.980;2023-02-01T03:32:24;16.33;;;5.30;;
4309;SDS011;2168;53.576;9.980;2023-02-01T03:34:49;14.23;;;4.23;;
4309;SDS011;2168;53.576;9.980;2023-02-01T03:37:25;18.87;;;5.57;;
4309;SDS011;2168;53.576;9.980;2023-02-01T03:42:18;9.73;;;2.90;;
4309;SDS011;2168;53.576;9.980;2023-02-01T03:47:14;9.77;;;3.67;;
4309;SDS011;2168;53.576;9.980;2023-02-01T03:49:41;12.40;;;3.57;;
4309;SDS011;2168;53.576;9.980;2023-02-01T03:52:09;13.80;;;4.13;;
4309;SDS011;2168;53.576;9.980;2023-02-01T03:54:35;18.80;;;3.60;;
4309;SDS011;2168;53.576;9.980;2023-02-01T03:57:01;18.70;;;3.97;;
4309;SDS011;2168;53.576;9.980;2023-02-01T03:59:28;11.07;;;4.20;;
4309;SDS011;2168;53.576;9.980;2023-02-01T04:01:53;14.80;;;3.20;;
4309;SDS011;2168;53.576;9.980;2023-02-01T04:04:18;16.07;;;3.40;;
4309;SDS011;2168;53.576;9.980;2023-02-01T04:06:47;12.90;;;3.87;;
4309;SDS011;2168;53.576;9.980;2023-02-01T04:09:12;18.53;;;4.17;;
4309;SDS011;2168;53.576;9.980;2023-02-01T04:11:37;15.27;;;3.63;;
4309;SDS011;2168;53.576;9.980;2023-02-01T04:14:03;14.43;;;4.67;;
4309;SDS011;2168;53.576;9.980;2023-02-01T04:16:29;19.43;;;4.67;;
4309;SDS011;2168;53.576;9.980;2023-02-01T04:18:54;19.63;;;4.03;;
4309;SDS011;2168;53.576;9.980;2023-02-01T04:21:20;19.63;;;4.10;;
4309;SDS011;2168;53.576;9.980;2023-02-01T04:23:46;20.73;;;3.90;;
4309;SDS011;2168;53.576;9.980;2023-02-01T04:26:11;15.53;;;3.00;;
4309;SDS011;2168;53.576;9.980;2023-02-01T04:28:36;19.17;;;3.80;;
4309;SDS011;2168;53.576;9.980;2023-02-01T04:31:01;21.53;;;3.60;;
4309;SDS011;2168;53.576;9.980;2023-02-01T04:33:26;14.33;;;3.00;;
4309;SDS011;2168;53.576;9.980;2023-02-01T04:35:51;21.03;;;3.80;;
4309;SDS011;2168;53.576;9.980;2023-02-01T04:38:17;14.77;;;3.40;;
4309;SDS011;2168;53.576;9.980;2023-02-01T04:40:42;21.80;;;4.10;;
4309;SDS011;2168;53.576;9.980;2023-02-01T04:43:07;10.73;;;3.23;;
4309;SDS011;2168;53.576;9.980;2023-02-01T04:45:33;14.13;;;3.50;;
4309;SDS011;2168;53.576;9.980;2023-02-01T04:47:58;7.83;;;3.27;;
4309;SDS011;2168;53.576;9.980;2023-02-01T04:50:23;13.47;;;3.70;;
4309;SDS011;2168;53.576;9.980;2023-02-01T04:52:48;29.80;;;3.97;;
4309;SDS011;2168;53.576;9.980;2023-02-01T04:55:14;17.83;;;3.43;;
4309;SDS011;2168;53.576;9.980;2023-02-01T04:57:39;16.37;;;3.37;;
4309;SDS011;2168;53.576;9.980;2023-02-01T05:00:06;16.10;;;3.77;;
4309;SDS011;2168;53.576;9.980;2023-02-01T05:02:32;7.63;;;3.53;;
4309;SDS011;2168;53.576;9.980;2023-02-01T05:04:57;5.03;;;3.17;;
4309;SDS011;2168;53.576;9.980;2023-02-01T05:07:22;8.33;;;3.50;;
4309;SDS011;2168;53.576;9.980;2023-02-01T05:09:47;7.90;;;3.60;;
4309;SDS011;2168;53.576;9.980;2023-02-01T05:12:13;3.50;;;2.77;;
4309;SDS011;2168;53.576;9.980;2023-02-01T05:14:56;2.70;;;1.80;;
4309;SDS011;2168;53.576;9.980;2023-02-01T05:17:22;7.00;;;2.43;;
4309;SDS011;2168;53.576;9.980;2023-02-01T05:19:47;10.83;;;2.27;;
4309;SDS011;2168;53.576;9.980;2023-02-01T05:22:12;3.10;;;1.60;;
4309;SDS011;2168;53.576;9.980;2023-02-01T05:24:37;6.03;;;1.73;;
4309;SDS011;2168;53.576;9.980;2023-02-01T05:27:02;3.40;;;1.63;;
4309;SDS011;2168;53.576;9.980;2023-02-01T05:29:28;2.73;;;1.40;;
4309;SDS011;2168;53.576;9.980;2023-02-01T05:31:53;1.90;;;1.47;;
4309;SDS011;2168;53.576;9.980;2023-02-01T05:34:18;1.00;;;0.80;;
4309;SDS011;2168;53.576;9.980;2023-02-01T05:36:43;2.90;;;1.07;;
4309;SDS011;2168;53.576;9.980;2023-02-01T05:39:08;5.80;;;2.00;;
4309;SDS011;2168;53.576;9.980;2023-02-01T05:41:35;3.40;;;1.50;;
4309;SDS011;2168;53.576;9.980;2023-02-01T05:44:00;2.03;;;1.20;;
4309;SDS011;2168;53.576;9.980;2023-02-01T05:46:25;1.90;;;1.30;;
4309;SDS011;2168;53.576;9.980;2023-02-01T05:48:50;2.80;;;1.20;;
4309;SDS011;2168;53.576;9.980;2023-02-01T05:51:16;4.17;;;1.30;;
4309;SDS011;2168;53.576;9.980;2023-02-01T05:53:41;2.20;;;1.40;;
4309;SDS011;2168;53.576;9.980;2023-02-01T05:56:06;2.30;;;1.20;;
4309;SDS011;2168;53.576;9.980;2023-02-01T05:58:32;1.10;;;1.00;;
4309;SDS011;2168;53.576;9.980;2023-02-01T06:01:00;3.57;;;1.10;;
4309;SDS011;2168;53.576;9.980;2023-02-01T06:03:25;2.37;;;1.30;;
4309;SDS011;2168;53.576;9.980;2023-02-01T06:05:50;1.23;;;1.13;;
4309;SDS011;2168;53.576;9.980;2023-02-01T06:08:16;3.70;;;1.00;;
4309;SDS011;2168;53.576;9.980;2023-02-01T06:10:42;2.63;;;1.50;;
4309;SDS011;2168;53.576;9.980;2023-02-01T06:13:07;1.37;;;1.10;;
4309;SDS011;2168;53.576;9.980;2023-02-01T06:15:33;1.50;;;1.27;;
4309;SDS011;2168;53.576;9.980;2023-02-01T06:17:58;8.40;;;1.47;;
4309;SDS011;2168;53.576;9.980;2023-02-01T06:20:24;1.60;;;1.20;;
4309;SDS011;2168;53.576;9.980;2023-02-01T06:22:49;3.83;;;1.60;;
4309;SDS011;2168;53.576;9.980;2023-02-01T06:25:15;2.53;;;1.13;;
4309;SDS011;2168;53.576;9.980;2023-02-01T06:27:41;2.37;;;1.27;;
4309;SDS011;2168;53.576;9.980;2023-02-01T06:30:08;3.00;;;1.53;;
4309;SDS011;2168;53.576;9.980;2023-02-01T06:32:33;5.27;;;1.50;;
4309;SDS011;2168;53.576;9.980;2023-02-01T06:34:59;6.73;;;2.00;;
4309;SDS011;2168;53.576;9.980;2023-02-01T06:37:25;8.70;;;1.83;;
4309;SDS011;2168;53.576;9.980;2023-02-01T06:39:53;10.40;;;3.03;;
4309;SDS011;2168;53.576;9.980;2023-02-01T06:42:18;9.03;;;2.03;;
4309;SDS011;2168;53.576;9.980;2023-02-01T06:44:43;8.10;;;2.27;;
4309;SDS011;2168;53.576;9.980;2023-02-01T06:47:09;9.33;;;2.80;;
4309;SDS011;2168;53.576;9.980;2023-02-01T06:49:34;11.27;;;2.37;;
4309;SDS011;2168;53.576;9.980;2023-02-01T06:51:59;7.60;;;2.40;;
4309;SDS011;2168;53.576;9.980;2023-02-01T06:54:25;12.37;;;2.47;;
4309;SDS011;2168;53.576;9.980;2023-02-01T06:56:50;9.23;;;2.20;;
4309;SDS011;2168;53.576;9.980;2023-02-01T06:59:15;9.93;;;2.10;;
4309;SDS011;2168;53.576;9.980;2023-02-01T07:01:40;9.47;;;2.47;;
4309;SDS011;2168;53.576;9.980;2023-02-01T07:04:06;11.50;;;3.00;;
4309;SDS011;2168;53.576;9.980;2023-02-01T07:06:31;16.97;;;3.93;;
4309;SDS011;2168;53.576;9.980;2023-02-01T07:08:56;9.13;;;2.50;;
4309;SDS011;2168;53.576;9.980;2023-02-01T07:11:22;8.83;;;3.33;;
4309;SDS011;2168;53.576;9.980;2023-02-01T07:13:47;12.33;;;3.03;;
4309;SDS011;2168;53.576;9.980;2023-02-01T07:16:14;10.13;;;3.53;;
4309;SDS011;2168;53.576;9.980;2023-02-01T07:18:39;23.83;;;3.90;;
4309;SDS011;2168;53.576;9.980;2023-02-01T07:21:04;14.40;;;3.40;;
4309;SDS011;2168;53.576;9.980;2023-02-01T07:23:30;12.83;;;3.60;;
4309;SDS011;2168;53.576;9.980;2023-02-01T07:25:59;17.23;;;3.20;;
4309;SDS011;2168;53.576;9.980;2023-02-01T07:28:24;30.27;;;4.03;;
4309;SDS011;2168;53.576;9.980;2023-02-01T07:30:50;15.10;;;3.50;;
4309;SDS011;2168;53.576;9.980;2023-02-01T07:33:19;29.63;;;5.77;;
4309;SDS011;2168;53.576;9.980;2023-02-01T07:35:45;13.37;;;4.73;;
4309;SDS011;2168;53.576;9.980;2023-02-01T07:38:10;17.00;;;4.93;;
4309;SDS011;2168;53.576;9.980;2023-02-01T07:40:35;10.80;;;3.47;;
4309;SDS011;2168;53.576;9.980;2023-02-01T07:43:00;17.50;;;3.93;;
4309;SDS011;2168;53.576;9.980;2023-02-01T07:45:26;26.43;;;4.10;;
4309;SDS011;2168;53.576;9.980;2023-02-01T07:47:51;29.20;;;5.70;;
4309;SDS011;2168;53.576;9.980;2023-02-01T07:50:17;31.47;;;5.50;;
4309;SDS011;2168;53.576;9.980;2023-02-01T07:52:42;28.83;;;5.40;;
4309;SDS011;2168;53.576;9.980;2023-02-01T07:55:08;33.43;;;5.20;;
4309;SDS011;2168;53.576;9.980;2023-02-01T07:57:33;24.77;;;4.50;;
4309;SDS011;2168;53.576;9.980;2023-02-01T07:59:58;29.07;;;5.00;;
4309;SDS011;2168;53.576;9.980;2023-02-01T08:02:42;18.50;;;4.77;;
4309;SDS011;2168;53.576;9.980;2023-02-01T08:05:08;28.37;;;4.60;;
4309;SDS011;2168;53.576;9.980;2023-02-01T08:07:33;21.27;;;4.53;;
4309;SDS011;2168;53.576;9.980;2023-02-01T08:09:58;26.63;;;4.90;;
4309;SDS011;2168;53.576;9.980;2023-02-01T08:12:24;33.43;;;5.67;;
4309;SDS011;2168;53.576;9.980;2023-02-01T08:14:50;26.10;;;4.60;;
4309;SDS011;2168;53.576;9.980;2023-02-01T08:17:15;26.70;;;4.83;;
4309;SDS011;2168;53.576;9.980;2023-02-01T08:19:40;30.43;;;4.67;;
4309;SDS011;2168;53.576;9.980;2023-02-01T08:22:05;35.87;;;6.90;;
4309;SDS011;2168;53.576;9.980;2023-02-01T08:24:32;36.07;;;4.40;;
4309;SDS011;2168;53.576;9.980;2023-02-01T08:26:57;34.67;;;6.00;;
4309;SDS011;2168;53.576;9.980;2023-02-01T08:29:22;33.30;;;4.93;;
4309;SDS011;2168;53.576;9.980;2023-02-01T08:31:48;31.30;;;4.53;;
4309;SDS011;2168;53.576;9.980;2023-02-01T08:34:13;30.77;;;5.63;;
4309;SDS011;2168;53.576;9.980;2023-02-01T08:36:38;27.40;;;4.30;;
4309;SDS011;2168;53.576;9.980;2023-02-01T08:39:03;23.33;;;5.77;;
4309;SDS011;2168;53.576;9.980;2023-02-01T08:41:33;22.33;;;3.97;;
4309;SDS011;2168;53.576;9.980;2023-02-01T08:43:59;17.40;;;4.10;;
4309;SDS011;2168;53.576;9.980;2023-02-01T08:46:24;22.23;;;4.47;;
4309;SDS011;2168;53.576;9.980;2023-02-01T08:48:50;17.20;;;3.87;;
4309;SDS011;2168;53.576;9.980;2023-02-01T08:51:16;26.30;;;4.20;;
4309;SDS011;2168;53.576;9.980;2023-02-01T08:53:42;26.70;;;4.47;;
4309;SDS011;2168;53.576;9.980;2023-02-01T08:56:08;26.13;;;3.70;;
4309;SDS011;2168;53.576;9.980;2023-02-01T08:58:33;15.43;;;3.70;;
4309;SDS011;2168;53.576;9.980;2023-02-01T09:01:06;15.17;;;3.13;;
4309;SDS011;2168;53.576;9.980;2023-02-01T09:03:31;21.33;;;4.13;;
4309;SDS011;2168;53.576;9.980;2023-02-01T09:06:03;23.90;;;4.97;;
4309;SDS011;2168;53.576;9.980;2023-02-01T09:08:29;22.17;;;4.60;;
4309;SDS011;2168;53.576;9.980;2023-02-01T09:10:58;21.57;;;4.10;;
4309;SDS011;2168;53.576;9.980;2023-02-01T09:13:23;37.23;;;5.80;;
4309;SDS011;2168;53.576;9.980;2023-02-01T09:15:50;21.60;;;5.00;;
4309;SDS011;2168;53.576;9.980;2023-02-01T09:18:15;30.07;;;5.03;;
4309;SDS011;2168;53.576;9.980;2023-02-01T09:20:41;24.40;;;4.60;;
4309;SDS011;2168;53.576;9.980;2023-02-01T09:23:06;25.17;;;4.97;;
4309;SDS011;2168;53.576;9.980;2023-02-01T09:25:32;23.50;;;4.43;;
4309;SDS011;2168;53.576;9.980;2023-02-01T09:27:57;24.30;;;4.20;;
4309;SDS011;2168;53.576;9.980;2023-02-01T09:30:23;21.17;;;4.27;;
4309;SDS011;2168;53.576;9.980;2023-02-01T09:32:48;25.00;;;4.83;;
4309;SDS011;2168;53.576;9.980;2023-02-01T09:35:14;18.53;;;3.70;;
4309;SDS011;2168;53.576;9.980;2023-02-01T09:37:39;26.60;;;4.77;;
4309;SDS011;2168;53.576;9.980;2023-02-01T09:40:04;15.27;;;3.30;;
4309;SDS011;2168;53.576;9.980;2023-02-01T09:47:40;15.53;;;5.27;;
4309;SDS011;2168;53.576;9.980;2023-02-01T09:50:11;18.73;;;4.00;;
4309;SDS011;2168;53.576;9.980;2023-02-01T09:55:09;17.57;;;3.53;;
4309;SDS011;2168;53.576;9.980;2023-02-01T09:57:40;16.40;;;4.00;;
4309;SDS011;2168;53.576;9.980;2023-02-01T10:00:12;5.63;;;2.53;;
4309;SDS011;2168;53.576;9.980;2023-02-01T10:02:40;25.00;;;4.00;;
4309;SDS011;2168;53.576;9.980;2023-02-01T10:05:10;16.50;;;3.70;;
4309;SDS011;2168;53.576;9.980;2023-02-01T10:07:39;22.73;;;4.70;;
4309;SDS011;2168;53.576;9.980;2023-02-01T10:10:13;26.87;;;3.67;;
4309;SDS011;2168;53.576;9.980;2023-02-01T10:20:52;16.07;;;3.33;;
4309;SDS011;2168;53.576;9.980;2023-02-01T10:28:25;15.73;;;3.60;;
4309;SDS011;2168;53.576;9.980;2023-02-01T10:30:51;23.13;;;4.03;;
4309;SDS011;2168;53.576;9.980;2023-02-01T10:33:19;22.53;;;4.53;;
4309;SDS011;2168;53.576;9.980;2023-02-01T10:35:46;26.73;;;4.97;;
4309;SDS011;2168;53.576;9.980;2023-02-01T10:38:24;17.97;;;4.70;;
4309;SDS011;2168;53.576;9.980;2023-02-01T10:40:55;21.20;;;4.53;;
4309;SDS011;2168;53.576;9.980;2023-02-01T10:43:21;15.23;;;4.60;;
4309;SDS011;2168;53.576;9.980;2023-02-01T10:45:46;23.17;;;5.13;;
4309;SDS011;2168;53.576;9.980;2023-02-01T10:48:11;22.20;;;4.60;;
4309;SDS011;2168;53.576;9.980;2023-02-01T10:50:54;23.07;;;4.43;;
4309;SDS011;2168;53.576;9.980;2023-02-01T10:58:20;19.67;;;5.23;;
4309;SDS011;2168;53.576;9.980;2023-02-01T11:00:53;15.53;;;3.80;;
4309;SDS011;2168;53.576;9.980;2023-02-01T11:03:19;19.97;;;4.33;;
4309;SDS011;2168;53.576;9.980;2023-02-01T11:05:45;28.63;;;5.00;;
4309;SDS011;2168;53.576;9.980;2023-02-01T11:08:13;19.73;;;4.80;;
4309;SDS011;2168;53.576;9.980;2023-02-01T11:10:40;17.03;;;4.03;;
4309;SDS011;2168;53.576;9.980;2023-02-01T11:13:11;27.23;;;4.73;;
4309;SDS011;2168;53.576;9.980;2023-02-01T11:15:38;22.97;;;4.10;;
4309;SDS011;2168;53.576;9.980;2023-02-01T11:18:12;14.73;;;2.97;;
4309;SDS011;2168;53.576;9.980;2023-02-01T11:20:39;14.70;;;3.83;;
4309;SDS011;2168;53.576;9.980;2023-02-01T11:23:17;22.53;;;4.13;;
4309;SDS011;2168;53.576;9.980;2023-02-01T11:25:49;13.83;;;3.70;;
4309;SDS011;2168;53.576;9.980;2023-02-01T11:28:15;22.53;;;4.10;;
4309;SDS011;2168;53.576;9.980;2023-02-01T11:30:41;18.57;;;4.17;;
4309;SDS011;2168;53.576;9.980;2023-02-01T11:33:10;13.80;;;3.20;;
4309;SDS011;2168;53.576;9.980;2023-02-01T11:35:37;20.13;;;3.33;;
4309;SDS011;2168;53.576;9.980;2023-02-01T11:38:10;14.17;;;3.40;;
4309;SDS011;2168;53.576;9.980;2023-02-01T11:40:36;14.40;;;3.40;;
4309;SDS011;2168;53.576;9.980;2023-02-01T11:43:22;21.43;;;3.83;;
4309;SDS011;2168;53.576;9.980;2023-02-01T11:46:00;17.70;;;3.80;;
4309;SDS011;2168;53.576;9.980;2023-02-01T11:48:27;17.40;;;3.60;;
4309;SDS011;2168;53.576;9.980;2023-02-01T11:50:57;20.27;;;4.00;;
4309;SDS011;2168;53.576;9.980;2023-02-01T12:03:56;9.30;;;2.10;;
4309;SDS011;2168;53.576;9.980;2023-02-01T12:35:49;13.27;;;2.20;;
4309;SDS011;2168;53.576;9.980;2023-02-01T12:38:20;5.10;;;1.77;;
4309;SDS011;2168;53.576;9.980;2023-02-01T12:41:37;4.07;;;1.57;;
4309;SDS011;2168;53.576;9.980;2023-02-01T12:43:39;3.73;;;1.27;;
4309;SDS011;2168;53.576;9.980;2023-02-01T12:46:09;3.27;;;1.60;;
4309;SDS011;2168;53.576;9.980;2023-02-01T12:51:28;4.23;;;1.50;;
4309;SDS011;2168;53.576;9.980;2023-02-01T12:56:19;5.00;;;1.27;;
4309;SDS011;2168;53.576;9.980;2023-02-01T12:58:47;2.70;;;1.50;;
4309;SDS011;2168;53.576;9.980;2023-02-01T13:06:45;0.90;;;0.80;;
4309;SDS011;2168;53.576;9.980;2023-02-01T13:11:40;3.30;;;1.10;;
4309;SDS011;2168;53.576;9.980;2023-02-01T13:14:22;2.50;;;1.10;;
4309;SDS011;2168;53.576;9.980;2023-02-01T13:16:51;0.90;;;0.90;;
4309;SDS011;2168;53.576;9.980;2023-02-01T13:21:51;2.37;;;0.70;;
4309;SDS011;2168;53.576;9.980;2023-02-01T13:24:30;2.00;;;1.07;;
4309;SDS011;2168;53.576;9.980;2023-02-01T13:26:56;2.43;;;0.70;;
4309;SDS011;2168;53.576;9.980;2023-02-01T13:29:22;1.40;;;0.90;;
4309;SDS011;2168;53.576;9.980;2023-02-01T13:31:57;1.80;;;0.70;;
4309;SDS011;2168;53.576;9.980;2023-02-01T13:42:23;1.57;;;0.83;;
4309;SDS011;2168;53.576;9.980;2023-02-01T13:44:56;3.53;;;0.80;;
4309;SDS011;2168;53.576;9.980;2023-02-01T13:47:32;1.87;;;0.80;;
4309;SDS011;2168;53.576;9.980;2023-02-01T13:49:59;2.50;;;0.90;;
4309;SDS011;2168;53.576;9.980;2023-02-01T13:52:38;4.00;;;0.80;;
4309;SDS011;2168;53.576;9.980;2023-02-01T13:55:15;3.43;;;0.87;;
4309;SDS011;2168;53.576;9.980;2023-02-01T13:57:41;3.83;;;0.93;;
4309;SDS011;2168;53.576;9.980;2023-02-01T14:00:08;4.47;;;1.10;;
4309;SDS011;2168;53.576;9.980;2023-02-01T14:13:21;3.33;;;0.80;;
4309;SDS011;2168;53.576;9.980;2023-02-01T14:16:10;2.90;;;0.90;;
4309;SDS011;2168;53.576;9.980;2023-02-01T14:24:13;3.73;;;1.47;;
4309;SDS011;2168;53.576;9.980;2023-02-01T14:29:01;5.97;;;2.10;;
4309;SDS011;2168;53.576;9.980;2023-02-01T14:34:31;8.20;;;2.80;;
4309;SDS011;2168;53.576;9.980;2023-02-01T14:37:00;6.50;;;2.03;;
4309;SDS011;2168;53.576;9.980;2023-02-01T14:39:31;5.17;;;1.80;;
4309;SDS011;2168;53.576;9.980;2023-02-01T14:41:58;8.40;;;2.20;;
4309;SDS011;2168;53.576;9.980;2023-02-01T14:44:26;6.10;;;2.00;;
4309;SDS011;2168;53.576;9.980;2023-02-01T14:47:09;10.90;;;2.67;;
4309;SDS011;2168;53.576;9.980;2023-02-01T14:49:37;6.13;;;1.70;;
4309;SDS011;2168;53.576;9.980;2023-02-01T14:52:04;8.53;;;2.10;;
4309;SDS011;2168;53.576;9.980;2023-02-01T14:54:30;6.23;;;2.33;;
4309;SDS011;2168;53.576;9.980;2023-02-01T14:56:56;7.80;;;1.83;;
4309;SDS011;2168;53.576;9.980;2023-02-01T14:59:22;13.90;;;2.03;;
4309;SDS011;2168;53.576;9.980;2023-02-01T15:01:57;9.57;;;2.50;;
4309;SDS011;2168;53.576;9.980;2023-02-01T15:04:24;13.67;;;2.27;;
4309;SDS011;2168;53.576;9.980;2023-02-01T15:06:54;17.50;;;2.47;;
4309;SDS011;2168;53.576;9.980;2023-02-01T15:09:32;16.33;;;2.30;;
4309;SDS011;2168;53.576;9.980;2023-02-01T15:14:38;13.87;;;2.67;;
4309;SDS011;2168;53.576;9.980;2023-02-01T15:19:52;10.50;;;2.53;;
4309;SDS011;2168;53.576;9.980;2023-02-01T15:22:18;9.13;;;2.20;;
4309;SDS011;2168;53.576;9.980;2023-02-01T15:24:43;13.80;;;2.43;;
4309;SDS011;2168;53.576;9.980;2023-02-01T15:27:08;12.30;;;2.17;;
4309;SDS011;2168;53.576;9.980;2023-02-01T15:29:34;10.47;;;2.23;;
4309;SDS011;2168;53.576;9.980;2023-02-01T15:32:00;10.77;;;3.27;;
4309;SDS011;2168;53.576;9.980;2023-02-01T15:34:43;13.47;;;2.10;;
4309;SDS011;2168;53.576;9.980;2023-02-01T15:37:11;5.10;;;1.97;;
4309;SDS011;2168;53.576;9.980;2023-02-01T15:39:37;12.33;;;1.90;;
4309;SDS011;2168;53.576;9.980;2023-02-01T15:42:22;14.33;;;2.10;;
4309;SDS011;2168;53.576;9.980;2023-02-01T15:44:48;10.80;;;3.07;;
4309;SDS011;2168;53.576;9.980;2023-02-01T15:47:17;18.83;;;2.90;;
4309;SDS011;2168;53.576;9.980;2023-02-01T15:49:44;9.63;;;2.37;;
4309;SDS011;2168;53.576;9.980;2023-02-01T15:52:21;15.40;;;2.97;;
4309;SDS011;2168;53.576;9.980;2023-02-01T15:54:48;9.27;;;2.57;;
4309;SDS011;2168;53.576;9.980;2023-02-01T15:57:18;15.40;;;2.50;;
4309;SDS011;2168;53.576;9.980;2023-02-01T15:59:45;16.77;;;3.60;;
4309;SDS011;2168;53.576;9.980;2023-02-01T16:02:25;15.67;;;3.97;;
4309;SDS011;2168;53.576;9.980;2023-02-01T16:04:50;14.00;;;3.20;;
4309;SDS011;2168;53.576;9.980;2023-02-01T16:07:32;10.17;;;3.10;;
4309;SDS011;2168;53.576;9.980;2023-02-01T16:09:58;17.73;;;3.47;;
4309;SDS011;2168;53.576;9.980;2023-02-01T16:12:28;21.77;;;3.23;;
4309;SDS011;2168;53.576;9.980;2023-02-01T16:14:54;13.10;;;3.37;;
4309;SDS011;2168;53.576;9.980;2023-02-01T16:17:20;16.10;;;3.37;;
4309;SDS011;2168;53.576;9.980;2023-02-01T16:19:45;14.37;;;3.70;;
4309;SDS011;2168;53.576;9.980;2023-02-01T16:22:11;19.30;;;3.07;;
4309;SDS011;2168;53.576;9.980;2023-02-01T16:24:36;17.70;;;3.83;;
4309;SDS011;2168;53.576;9.980;2023-02-01T16:27:01;14.90;;;3.17;;
4309;SDS011;2168;53.576;9.980;2023-02-01T16:29:27;16.10;;;3.63;;
4309;SDS011;2168;53.576;9.980;2023-02-01T16:31:53;13.80;;;3.43;;
4309;SDS011;2168;53.576;9.980;2023-02-01T16:34:18;15.10;;;3.10;;
4309;SDS011;2168;53.576;9.980;2023-02-01T16:36:47;21.60;;;4.13;;
4309;SDS011;2168;53.576;9.980;2023-02-01T16:39:17;18.03;;;4.00;;
4309;SDS011;2168;53.576;9.980;2023-02-01T16:41:42;19.90;;;4.27;;
4309;SDS011;2168;53.576;9.980;2023-02-01T16:44:07;27.10;;;3.17;;
4309;SDS011;2168;53.576;9.980;2023-02-01T16:46:33;17.70;;;3.87;;
4309;SDS011;2168;53.576;9.980;2023-02-01T16:48:59;26.03;;;4.60;;
4309;SDS011;2168;53.576;9.980;2023-02-01T16:51:25;15.73;;;3.53;;
4309;SDS011;2168;53.576;9.980;2023-02-01T16:53:51;21.07;;;4.30;;
4309;SDS011;2168;53.576;9.980;2023-02-01T16:56:18;38.50;;;5.10;;
4309;SDS011;2168;53.576;9.980;2023-02-01T16:58:44;27.50;;;4.13;;
4309;SDS011;2168;53.576;9.980;2023-02-01T17:01:13;22.03;;;3.40;;
4309;SDS011;2168;53.576;9.980;2023-02-01T17:03:38;24.80;;;5.80;;
4309;SDS011;2168;53.576;9.980;2023-02-01T17:06:04;21.40;;;4.50;;
4309;SDS011;2168;53.576;9.980;2023-02-01T17:08:37;30.73;;;5.17;;
4309;SDS011;2168;53.576;9.980;2023-02-01T17:11:04;25.87;;;5.20;;
4309;SDS011;2168;53.576;9.980;2023-02-01T17:13:30;27.83;;;5.23;;
4309;SDS011;2168;53.576;9.980;2023-02-01T17:16:00;32.10;;;5.30;;
4309;SDS011;2168;53.576;9.980;2023-02-01T17:18:26;24.47;;;4.73;;
4309;SDS011;2168;53.576;9.980;2023-02-01T17:20:55;18.90;;;4.23;;
4309;SDS011;2168;53.576;9.980;2023-02-01T17:23:20;22.90;;;5.00;;
4309;SDS011;2168;53.576;9.980;2023-02-01T17:25:46;20.03;;;4.07;;
4309;SDS011;2168;53.576;9.980;2023-02-01T17:28:12;34.00;;;5.07;;
4309;SDS011;2168;53.576;9.980;2023-02-01T17:30:38;26.30;;;4.50;;